sensor_id;sensor_type;location;lat;lon;timestamp;P1;durP1;ratioP1;P2;durP2;ratioP2
57067;SDS011;43391;47.448;18.904;2023-05-14T00:02:12;14.15;;;12.10;;
57067;SDS011;43391;47.448;18.904;2023-05-14T00:04:37;15.95;;;12.65;;
57067;SDS011;43391;47.448;18.904;2023-05-14T00:07:03;14.70;;;13.05;;
57067;SDS011;43391;47.448;18.904;2023-05-14T00:09:28;15.38;;;12.77;;
57067;SDS011;43391;47.448;18.904;2023-05-14T00:11:54;18.45;;;13.15;;
57067;SDS011;43391;47.448;18.904;2023-05-14T00:14:20;16.48;;;12.35;;
57067;SDS011;43391;47.448;18.904;2023-05-14T00:16:45;15.82;;;12.95;;
57067;SDS011;43391;47.448;18.904;2023-05-14T00:19:11;13.75;;;12.35;;
57067;SDS011;43391;47.448;18.904;2023-05-14T00:21:36;14.32;;;12.85;;
57067;SDS011;43391;47.448;18.904;2023-05-14T00:24:01;15.05;;;13.07;;
57067;SDS011;43391;47.448;18.904;2023-05-14T00:26:27;13.85;;;12.15;;
57067;SDS011;43391;47.448;18.904;2023-05-14T00:28:52;16.40;;;13.25;;
57067;SDS011;43391;47.448;18.904;2023-05-14T00:31:18;14.77;;;13.02;;
57067;SDS011;43391;47.448;18.904;2023-05-14T00:33:43;19.02;;;13.10;;
57067;SDS011;43391;47.448;18.904;2023-05-14T00:36:08;15.27;;;11.82;;
57067;SDS011;43391;47.448;18.904;2023-05-14T00:38:34;15.65;;;13.30;;
57067;SDS011;43391;47.448;18.904;2023-05-14T00:40:59;17.35;;;13.27;;
57067;SDS011;43391;47.448;18.904;2023-05-14T00:43:24;16.20;;;13.15;;
57067;SDS011;43391;47.448;18.904;2023-05-14T00:45:51;16.75;;;13.23;;
57067;SDS011;43391;47.448;18.904;2023-05-14T00:48:18;16.48;;;12.98;;
57067;SDS011;43391;47.448;18.904;2023-05-14T00:50:44;15.55;;;12.30;;
57067;SDS011;43391;47.448;18.904;2023-05-14T00:53:10;16.20;;;13.20;;
57067;SDS011;43391;47.448;18.904;2023-05-14T00:55:36;16.50;;;12.60;;
57067;SDS011;43391;47.448;18.904;2023-05-14T00:58:09;16.08;;;12.80;;
57067;SDS011;43391;47.448;18.904;2023-05-14T01:00:36;17.88;;;13.90;;
57067;SDS011;43391;47.448;18.904;2023-05-14T01:03:02;16.80;;;13.48;;
57067;SDS011;43391;47.448;18.904;2023-05-14T01:05:29;15.73;;;13.15;;
57067;SDS011;43391;47.448;18.904;2023-05-14T01:11:05;15.70;;;12.40;;
57067;SDS011;43391;47.448;18.904;2023-05-14T01:13:38;19.27;;;13.10;;
57067;SDS011;43391;47.448;18.904;2023-05-14T01:16:15;16.95;;;12.63;;
57067;SDS011;43391;47.448;18.904;2023-05-14T01:18:43;16.55;;;12.35;;
57067;SDS011;43391;47.448;18.904;2023-05-14T01:21:24;14.32;;;12.55;;
57067;SDS011;43391;47.448;18.904;2023-05-14T01:23:58;17.23;;;12.43;;
57067;SDS011;43391;47.448;18.904;2023-05-14T01:26:23;17.95;;;12.32;;
57067;SDS011;43391;47.448;18.904;2023-05-14T01:28:48;13.73;;;11.57;;
57067;SDS011;43391;47.448;18.904;2023-05-14T01:31:17;14.05;;;11.25;;
57067;SDS011;43391;47.448;18.904;2023-05-14T01:33:49;18.90;;;12.73;;
57067;SDS011;43391;47.448;18.904;2023-05-14T01:36:15;13.13;;;10.85;;
57067;SDS011;43391;47.448;18.904;2023-05-14T01:38:41;17.33;;;11.63;;
57067;SDS011;43391;47.448;18.904;2023-05-14T01:41:09;13.07;;;11.52;;
57067;SDS011;43391;47.448;18.904;2023-05-14T01:43:36;15.55;;;11.65;;
57067;SDS011;43391;47.448;18.904;2023-05-14T01:46:03;13.35;;;11.73;;
57067;SDS011;43391;47.448;18.904;2023-05-14T01:48:28;12.57;;;10.65;;
57067;SDS011;43391;47.448;18.904;2023-05-14T01:50:54;13.32;;;11.63;;
57067;SDS011;43391;47.448;18.904;2023-05-14T01:53:19;13.20;;;11.27;;
57067;SDS011;43391;47.448;18.904;2023-05-14T01:55:45;15.68;;;11.82;;
57067;SDS011;43391;47.448;18.904;2023-05-14T01:58:10;13.35;;;10.75;;
57067;SDS011;43391;47.448;18.904;2023-05-14T02:00:35;13.35;;;10.38;;
57067;SDS011;43391;47.448;18.904;2023-05-14T02:03:02;12.18;;;10.45;;
57067;SDS011;43391;47.448;18.904;2023-05-14T02:05:27;12.88;;;10.45;;
57067;SDS011;43391;47.448;18.904;2023-05-14T02:07:53;14.80;;;10.63;;
57067;SDS011;43391;47.448;18.904;2023-05-14T02:10:18;11.93;;;10.48;;
57067;SDS011;43391;47.448;18.904;2023-05-14T02:12:44;15.57;;;9.88;;
57067;SDS011;43391;47.448;18.904;2023-05-14T02:15:09;11.98;;;9.43;;
57067;SDS011;43391;47.448;18.904;2023-05-14T02:17:35;11.88;;;9.52;;
57067;SDS011;43391;47.448;18.904;2023-05-14T02:20:00;12.55;;;9.70;;
57067;SDS011;43391;47.448;18.904;2023-05-14T02:22:26;10.75;;;9.30;;
57067;SDS011;43391;47.448;18.904;2023-05-14T02:24:51;14.93;;;9.68;;
57067;SDS011;43391;47.448;18.904;2023-05-14T02:27:16;11.70;;;9.60;;
57067;SDS011;43391;47.448;18.904;2023-05-14T02:29:42;13.25;;;9.18;;
57067;SDS011;43391;47.448;18.904;2023-05-14T02:32:07;11.75;;;9.98;;
57067;SDS011;43391;47.448;18.904;2023-05-14T02:34:33;11.60;;;8.68;;
57067;SDS011;43391;47.448;18.904;2023-05-14T02:36:58;13.27;;;10.38;;
57067;SDS011;43391;47.448;18.904;2023-05-14T02:39:24;13.02;;;9.93;;
57067;SDS011;43391;47.448;18.904;2023-05-14T02:41:49;13.63;;;9.60;;
57067;SDS011;43391;47.448;18.904;2023-05-14T02:44:15;14.60;;;9.60;;
57067;SDS011;43391;47.448;18.904;2023-05-14T02:46:40;11.00;;;9.80;;
57067;SDS011;43391;47.448;18.904;2023-05-14T02:49:05;14.48;;;10.00;;
57067;SDS011;43391;47.448;18.904;2023-05-14T02:51:31;15.20;;;10.43;;
57067;SDS011;43391;47.448;18.904;2023-05-14T02:53:56;12.57;;;9.50;;
57067;SDS011;43391;47.448;18.904;2023-05-14T02:56:22;15.13;;;10.63;;
57067;SDS011;43391;47.448;18.904;2023-05-14T02:58:47;14.77;;;9.85;;
57067;SDS011;43391;47.448;18.904;2023-05-14T03:01:12;11.90;;;10.63;;
57067;SDS011;43391;47.448;18.904;2023-05-14T03:03:38;11.50;;;10.15;;
57067;SDS011;43391;47.448;18.904;2023-05-14T03:06:04;12.10;;;9.73;;
57067;SDS011;43391;47.448;18.904;2023-05-14T03:08:29;13.45;;;9.40;;
57067;SDS011;43391;47.448;18.904;2023-05-14T03:10:55;13.18;;;9.82;;
57067;SDS011;43391;47.448;18.904;2023-05-14T03:13:20;10.48;;;9.00;;
57067;SDS011;43391;47.448;18.904;2023-05-14T03:15:46;11.63;;;10.18;;
57067;SDS011;43391;47.448;18.904;2023-05-14T03:18:12;12.55;;;9.70;;
57067;SDS011;43391;47.448;18.904;2023-05-14T03:20:37;11.35;;;9.45;;
57067;SDS011;43391;47.448;18.904;2023-05-14T03:23:03;11.68;;;9.85;;
57067;SDS011;43391;47.448;18.904;2023-05-14T03:25:29;12.90;;;10.65;;
57067;SDS011;43391;47.448;18.904;2023-05-14T03:27:54;10.40;;;9.30;;
57067;SDS011;43391;47.448;18.904;2023-05-14T03:30:19;11.45;;;9.25;;
57067;SDS011;43391;47.448;18.904;2023-05-14T03:32:45;12.23;;;10.13;;
57067;SDS011;43391;47.448;18.904;2023-05-14T03:35:10;13.00;;;9.68;;
57067;SDS011;43391;47.448;18.904;2023-05-14T03:37:36;12.55;;;10.45;;
57067;SDS011;43391;47.448;18.904;2023-05-14T03:40:01;10.98;;;9.55;;
57067;SDS011;43391;47.448;18.904;2023-05-14T03:42:26;12.93;;;9.80;;
57067;SDS011;43391;47.448;18.904;2023-05-14T03:44:52;12.40;;;10.50;;
57067;SDS011;43391;47.448;18.904;2023-05-14T03:47:17;11.27;;;9.82;;
57067;SDS011;43391;47.448;18.904;2023-05-14T03:49:43;15.65;;;9.90;;
57067;SDS011;43391;47.448;18.904;2023-05-14T03:52:08;14.40;;;11.20;;
57067;SDS011;43391;47.448;18.904;2023-05-14T03:54:33;13.57;;;10.13;;
57067;SDS011;43391;47.448;18.904;2023-05-14T03:56:59;11.75;;;9.88;;
57067;SDS011;43391;47.448;18.904;2023-05-14T03:59:24;11.98;;;10.45;;
57067;SDS011;43391;47.448;18.904;2023-05-14T04:01:50;11.80;;;9.88;;
57067;SDS011;43391;47.448;18.904;2023-05-14T04:04:15;12.88;;;9.73;;
57067;SDS011;43391;47.448;18.904;2023-05-14T04:06:40;10.48;;;8.98;;
57067;SDS011;43391;47.448;18.904;2023-05-14T04:09:06;12.40;;;9.55;;
57067;SDS011;43391;47.448;18.904;2023-05-14T04:11:31;11.85;;;9.35;;
57067;SDS011;43391;47.448;18.904;2023-05-14T04:13:56;10.35;;;9.18;;
57067;SDS011;43391;47.448;18.904;2023-05-14T04:16:22;12.23;;;9.80;;
57067;SDS011;43391;47.448;18.904;2023-05-14T04:18:47;11.48;;;8.50;;
57067;SDS011;43391;47.448;18.904;2023-05-14T04:21:12;16.38;;;10.50;;
57067;SDS011;43391;47.448;18.904;2023-05-14T04:23:38;10.80;;;8.98;;
57067;SDS011;43391;47.448;18.904;2023-05-14T04:26:03;13.55;;;8.73;;
57067;SDS011;43391;47.448;18.904;2023-05-14T04:28:29;12.05;;;8.40;;
57067;SDS011;43391;47.448;18.904;2023-05-14T04:30:54;16.13;;;9.52;;
57067;SDS011;43391;47.448;18.904;2023-05-14T04:33:20;9.75;;;8.60;;
57067;SDS011;43391;47.448;18.904;2023-05-14T04:35:45;12.50;;;8.85;;
57067;SDS011;43391;47.448;18.904;2023-05-14T04:38:11;13.73;;;8.45;;
57067;SDS011;43391;47.448;18.904;2023-05-14T04:40:38;10.27;;;8.13;;
57067;SDS011;43391;47.448;18.904;2023-05-14T04:43:03;9.90;;;8.25;;
57067;SDS011;43391;47.448;18.904;2023-05-14T04:45:28;17.55;;;8.95;;
57067;SDS011;43391;47.448;18.904;2023-05-14T04:47:54;10.27;;;7.95;;
57067;SDS011;43391;47.448;18.904;2023-05-14T04:50:19;9.93;;;8.13;;
57067;SDS011;43391;47.448;18.904;2023-05-14T04:52:45;12.05;;;8.82;;
57067;SDS011;43391;47.448;18.904;2023-05-14T04:55:10;10.80;;;8.30;;
57067;SDS011;43391;47.448;18.904;2023-05-14T04:57:35;9.55;;;7.68;;
57067;SDS011;43391;47.448;18.904;2023-05-14T05:00:01;9.50;;;8.40;;
57067;SDS011;43391;47.448;18.904;2023-05-14T05:02:29;13.52;;;7.97;;
57067;SDS011;43391;47.448;18.904;2023-05-14T05:04:54;11.55;;;8.10;;
57067;SDS011;43391;47.448;18.904;2023-05-14T05:07:20;10.35;;;7.97;;
57067;SDS011;43391;47.448;18.904;2023-05-14T05:09:45;9.73;;;8.20;;
57067;SDS011;43391;47.448;18.904;2023-05-14T05:12:11;11.63;;;8.10;;
57067;SDS011;43391;47.448;18.904;2023-05-14T05:14:36;12.95;;;8.52;;
57067;SDS011;43391;47.448;18.904;2023-05-14T05:17:01;11.40;;;7.75;;
57067;SDS011;43391;47.448;18.904;2023-05-14T05:19:27;10.90;;;8.25;;
57067;SDS011;43391;47.448;18.904;2023-05-14T05:21:53;12.07;;;8.30;;
57067;SDS011;43391;47.448;18.904;2023-05-14T05:24:18;11.95;;;8.35;;
57067;SDS011;43391;47.448;18.904;2023-05-14T05:26:44;8.77;;;7.78;;
57067;SDS011;43391;47.448;18.904;2023-05-14T05:29:09;10.88;;;7.90;;
57067;SDS011;43391;47.448;18.904;2023-05-14T05:31:34;10.25;;;8.20;;
57067;SDS011;43391;47.448;18.904;2023-05-14T05:34:01;11.43;;;8.15;;
57067;SDS011;43391;47.448;18.904;2023-05-14T05:36:26;10.25;;;8.18;;
57067;SDS011;43391;47.448;18.904;2023-05-14T05:38:52;11.13;;;8.32;;
57067;SDS011;43391;47.448;18.904;2023-05-14T05:41:18;9.57;;;8.30;;
57067;SDS011;43391;47.448;18.904;2023-05-14T05:43:43;11.20;;;8.23;;
57067;SDS011;43391;47.448;18.904;2023-05-14T05:46:08;12.82;;;9.30;;
57067;SDS011;43391;47.448;18.904;2023-05-14T05:48:34;10.43;;;9.30;;
57067;SDS011;43391;47.448;18.904;2023-05-14T05:50:59;15.20;;;10.23;;
57067;SDS011;43391;47.448;18.904;2023-05-14T05:53:24;12.65;;;10.25;;
57067;SDS011;43391;47.448;18.904;2023-05-14T05:55:50;10.70;;;8.95;;
57067;SDS011;43391;47.448;18.904;2023-05-14T05:58:16;12.63;;;9.57;;
57067;SDS011;43391;47.448;18.904;2023-05-14T06:00:42;12.88;;;9.07;;
57067;SDS011;43391;47.448;18.904;2023-05-14T06:03:08;11.98;;;8.55;;
57067;SDS011;43391;47.448;18.904;2023-05-14T06:05:33;14.18;;;9.73;;
57067;SDS011;43391;47.448;18.904;2023-05-14T06:07:58;15.50;;;11.57;;
57067;SDS011;43391;47.448;18.904;2023-05-14T06:10:24;21.50;;;13.43;;
57067;SDS011;43391;47.448;18.904;2023-05-14T06:12:49;28.52;;;18.75;;
57067;SDS011;43391;47.448;18.904;2023-05-14T06:15:14;22.73;;;14.50;;
57067;SDS011;43391;47.448;18.904;2023-05-14T06:17:40;29.42;;;16.50;;
57067;SDS011;43391;47.448;18.904;2023-05-14T06:20:05;20.40;;;13.23;;
57067;SDS011;43391;47.448;18.904;2023-05-14T06:22:32;13.50;;;10.70;;
57067;SDS011;43391;47.448;18.904;2023-05-14T06:24:58;13.75;;;11.18;;
57067;SDS011;43391;47.448;18.904;2023-05-14T06:27:23;22.42;;;13.45;;
57067;SDS011;43391;47.448;18.904;2023-05-14T06:29:48;26.15;;;15.45;;
57067;SDS011;43391;47.448;18.904;2023-05-14T06:32:14;43.45;;;21.25;;
57067;SDS011;43391;47.448;18.904;2023-05-14T06:34:40;33.03;;;16.67;;
57067;SDS011;43391;47.448;18.904;2023-05-14T06:37:07;14.45;;;11.40;;
57067;SDS011;43391;47.448;18.904;2023-05-14T06:39:33;21.60;;;14.65;;
57067;SDS011;43391;47.448;18.904;2023-05-14T06:41:59;17.00;;;12.20;;
57067;SDS011;43391;47.448;18.904;2023-05-14T06:44:25;21.17;;;13.18;;
57067;SDS011;43391;47.448;18.904;2023-05-14T06:46:50;19.80;;;13.88;;
57067;SDS011;43391;47.448;18.904;2023-05-14T06:49:16;13.32;;;11.30;;
57067;SDS011;43391;47.448;18.904;2023-05-14T06:51:41;16.48;;;12.73;;
57067;SDS011;43391;47.448;18.904;2023-05-14T06:54:07;13.93;;;12.00;;
57067;SDS011;43391;47.448;18.904;2023-05-14T06:56:33;16.65;;;12.05;;
57067;SDS011;43391;47.448;18.904;2023-05-14T06:58:58;13.80;;;12.23;;
57067;SDS011;43391;47.448;18.904;2023-05-14T07:01:24;17.60;;;13.05;;
57067;SDS011;43391;47.448;18.904;2023-05-14T07:03:49;14.57;;;12.10;;
57067;SDS011;43391;47.448;18.904;2023-05-14T07:06:15;15.77;;;12.13;;
57067;SDS011;43391;47.448;18.904;2023-05-14T07:08:41;16.13;;;12.90;;
57067;SDS011;43391;47.448;18.904;2023-05-14T07:11:09;15.05;;;12.48;;
57067;SDS011;43391;47.448;18.904;2023-05-14T07:13:35;14.25;;;12.70;;
57067;SDS011;43391;47.448;18.904;2023-05-14T07:16:00;14.35;;;12.02;;
57067;SDS011;43391;47.448;18.904;2023-05-14T07:18:25;15.45;;;12.70;;
57067;SDS011;43391;47.448;18.904;2023-05-14T07:20:51;16.38;;;13.35;;
57067;SDS011;43391;47.448;18.904;2023-05-14T07:23:16;17.88;;;12.65;;
57067;SDS011;43391;47.448;18.904;2023-05-14T07:25:41;16.65;;;12.15;;
57067;SDS011;43391;47.448;18.904;2023-05-14T07:28:07;15.90;;;12.65;;
57067;SDS011;43391;47.448;18.904;2023-05-14T07:30:32;13.25;;;11.88;;
57067;SDS011;43391;47.448;18.904;2023-05-14T07:32:57;13.52;;;11.80;;
57067;SDS011;43391;47.448;18.904;2023-05-14T07:35:23;15.25;;;12.25;;
57067;SDS011;43391;47.448;18.904;2023-05-14T07:37:48;15.10;;;13.00;;
57067;SDS011;43391;47.448;18.904;2023-05-14T07:40:14;13.65;;;12.23;;
57067;SDS011;43391;47.448;18.904;2023-05-14T07:42:39;14.77;;;11.48;;
57067;SDS011;43391;47.448;18.904;2023-05-14T07:45:05;15.68;;;13.30;;
57067;SDS011;43391;47.448;18.904;2023-05-14T07:47:30;15.60;;;12.05;;
57067;SDS011;43391;47.448;18.904;2023-05-14T07:49:56;16.35;;;12.93;;
57067;SDS011;43391;47.448;18.904;2023-05-14T07:52:22;16.23;;;12.02;;
57067;SDS011;43391;47.448;18.904;2023-05-14T07:54:48;16.83;;;13.40;;
57067;SDS011;43391;47.448;18.904;2023-05-14T07:57:15;19.13;;;12.85;;
57067;SDS011;43391;47.448;18.904;2023-05-14T07:59:40;16.40;;;12.23;;
57067;SDS011;43391;47.448;18.904;2023-05-14T08:02:06;15.38;;;12.02;;
57067;SDS011;43391;47.448;18.904;2023-05-14T08:04:34;14.25;;;12.85;;
57067;SDS011;43391;47.448;18.904;2023-05-14T08:07:00;14.88;;;12.40;;
57067;SDS011;43391;47.448;18.904;2023-05-14T08:09:25;15.48;;;11.80;;
57067;SDS011;43391;47.448;18.904;2023-05-14T08:11:50;16.48;;;12.25;;
57067;SDS011;43391;47.448;18.904;2023-05-14T08:14:16;17.20;;;12.38;;
57067;SDS011;43391;47.448;18.904;2023-05-14T08:16:41;16.38;;;12.05;;
57067;SDS011;43391;47.448;18.904;2023-05-14T08:19:06;15.50;;;13.05;;
57067;SDS011;43391;47.448;18.904;2023-05-14T08:21:32;16.98;;;13.80;;
57067;SDS011;43391;47.448;18.904;2023-05-14T08:23:57;17.67;;;14.57;;
57067;SDS011;43391;47.448;18.904;2023-05-14T08:26:23;17.02;;;14.88;;
57067;SDS011;43391;47.448;18.904;2023-05-14T08:28:48;18.40;;;14.02;;
57067;SDS011;43391;47.448;18.904;2023-05-14T08:31:13;17.80;;;13.68;;
57067;SDS011;43391;47.448;18.904;2023-05-14T08:33:39;17.15;;;13.90;;
57067;SDS011;43391;47.448;18.904;2023-05-14T08:36:05;17.73;;;12.77;;
57067;SDS011;43391;47.448;18.904;2023-05-14T08:38:31;15.07;;;12.90;;
57067;SDS011;43391;47.448;18.904;2023-05-14T08:40:57;15.73;;;12.68;;
57067;SDS011;43391;47.448;18.904;2023-05-14T08:43:31;20.25;;;13.27;;
57067;SDS011;43391;47.448;18.904;2023-05-14T08:46:06;15.38;;;11.65;;
57067;SDS011;43391;47.448;18.904;2023-05-14T08:48:37;16.60;;;13.07;;
57067;SDS011;43391;47.448;18.904;2023-05-14T08:51:06;17.98;;;13.73;;
57067;SDS011;43391;47.448;18.904;2023-05-14T08:53:32;14.75;;;12.27;;
57067;SDS011;43391;47.448;18.904;2023-05-14T08:55:57;14.63;;;12.70;;
57067;SDS011;43391;47.448;18.904;2023-05-14T08:58:25;16.02;;;11.90;;
57067;SDS011;43391;47.448;18.904;2023-05-14T09:00:52;15.68;;;11.98;;
57067;SDS011;43391;47.448;18.904;2023-05-14T09:03:18;15.23;;;11.00;;
57067;SDS011;43391;47.448;18.904;2023-05-14T09:05:44;16.38;;;12.27;;
57067;SDS011;43391;47.448;18.904;2023-05-14T09:08:09;14.48;;;12.50;;
57067;SDS011;43391;47.448;18.904;2023-05-14T09:10:35;14.07;;;12.13;;
57067;SDS011;43391;47.448;18.904;2023-05-14T09:13:00;13.35;;;11.88;;
57067;SDS011;43391;47.448;18.904;2023-05-14T09:15:26;17.05;;;12.35;;
57067;SDS011;43391;47.448;18.904;2023-05-14T09:17:53;17.85;;;12.80;;
57067;SDS011;43391;47.448;18.904;2023-05-14T09:20:19;16.20;;;12.45;;
57067;SDS011;43391;47.448;18.904;2023-05-14T09:22:45;15.88;;;12.05;;
57067;SDS011;43391;47.448;18.904;2023-05-14T09:25:10;17.35;;;13.18;;
57067;SDS011;43391;47.448;18.904;2023-05-14T09:27:36;15.20;;;12.77;;
57067;SDS011;43391;47.448;18.904;2023-05-14T09:32:34;16.02;;;13.05;;
57067;SDS011;43391;47.448;18.904;2023-05-14T09:35:08;17.52;;;14.05;;
57067;SDS011;43391;47.448;18.904;2023-05-14T09:37:39;17.33;;;13.63;;
57067;SDS011;43391;47.448;18.904;2023-05-14T09:40:06;19.52;;;14.20;;
57067;SDS011;43391;47.448;18.904;2023-05-14T09:42:36;18.52;;;15.07;;
57067;SDS011;43391;47.448;18.904;2023-05-14T09:45:01;22.17;;;14.98;;
57067;SDS011;43391;47.448;18.904;2023-05-14T09:47:28;17.55;;;13.60;;
57067;SDS011;43391;47.448;18.904;2023-05-14T09:49:54;17.17;;;13.75;;
57067;SDS011;43391;47.448;18.904;2023-05-14T09:52:19;16.80;;;14.20;;
57067;SDS011;43391;47.448;18.904;2023-05-14T09:54:45;20.05;;;15.50;;
57067;SDS011;43391;47.448;18.904;2023-05-14T09:57:11;20.13;;;15.73;;
57067;SDS011;43391;47.448;18.904;2023-05-14T09:59:36;20.75;;;15.57;;
57067;SDS011;43391;47.448;18.904;2023-05-14T10:02:01;21.23;;;17.00;;
57067;SDS011;43391;47.448;18.904;2023-05-14T10:04:29;20.58;;;16.33;;
57067;SDS011;43391;47.448;18.904;2023-05-14T10:06:57;19.67;;;16.52;;
57067;SDS011;43391;47.448;18.904;2023-05-14T10:09:24;22.00;;;16.67;;
57067;SDS011;43391;47.448;18.904;2023-05-14T10:11:52;18.50;;;15.32;;
57067;SDS011;43391;47.448;18.904;2023-05-14T10:14:24;21.38;;;17.50;;
57067;SDS011;43391;47.448;18.904;2023-05-14T10:16:53;19.45;;;15.32;;
57067;SDS011;43391;47.448;18.904;2023-05-14T10:19:22;17.65;;;14.45;;
57067;SDS011;43391;47.448;18.904;2023-05-14T10:21:54;21.05;;;15.15;;
57067;SDS011;43391;47.448;18.904;2023-05-14T10:24:20;15.55;;;14.00;;
57067;SDS011;43391;47.448;18.904;2023-05-14T10:26:46;20.17;;;14.80;;
57067;SDS011;43391;47.448;18.904;2023-05-14T10:29:13;17.73;;;14.35;;
57067;SDS011;43391;47.448;18.904;2023-05-14T10:31:51;18.20;;;14.40;;
57067;SDS011;43391;47.448;18.904;2023-05-14T10:34:31;16.15;;;12.73;;
57067;SDS011;43391;47.448;18.904;2023-05-14T10:37:05;17.63;;;13.85;;
57067;SDS011;43391;47.448;18.904;2023-05-14T10:42:18;17.10;;;13.93;;
57067;SDS011;43391;47.448;18.904;2023-05-14T10:44:53;16.35;;;12.48;;
57067;SDS011;43391;47.448;18.904;2023-05-14T10:47:20;15.13;;;12.30;;
57067;SDS011;43391;47.448;18.904;2023-05-14T10:49:46;18.80;;;13.98;;
57067;SDS011;43391;47.448;18.904;2023-05-14T10:52:14;14.73;;;12.90;;
57067;SDS011;43391;47.448;18.904;2023-05-14T10:57:16;16.67;;;12.82;;
57067;SDS011;43391;47.448;18.904;2023-05-14T10:59:42;15.57;;;12.80;;
57067;SDS011;43391;47.448;18.904;2023-05-14T11:02:17;17.67;;;13.90;;
57067;SDS011;43391;47.448;18.904;2023-05-14T11:04:59;16.20;;;12.30;;
57067;SDS011;43391;47.448;18.904;2023-05-14T11:07:30;15.80;;;12.40;;
57067;SDS011;43391;47.448;18.904;2023-05-14T11:10:01;14.90;;;13.30;;
57067;SDS011;43391;47.448;18.904;2023-05-14T11:12:28;16.95;;;12.40;;
57067;SDS011;43391;47.448;18.904;2023-05-14T11:14:57;15.82;;;11.93;;
57067;SDS011;43391;47.448;18.904;2023-05-14T11:17:28;19.00;;;13.63;;
57067;SDS011;43391;47.448;18.904;2023-05-14T11:19:54;19.88;;;15.57;;
57067;SDS011;43391;47.448;18.904;2023-05-14T11:22:21;19.08;;;13.30;;
57067;SDS011;43391;47.448;18.904;2023-05-14T11:24:46;16.77;;;13.45;;
57067;SDS011;43391;47.448;18.904;2023-05-14T11:27:12;19.05;;;12.90;;
57067;SDS011;43391;47.448;18.904;2023-05-14T11:29:37;16.63;;;13.45;;
57067;SDS011;43391;47.448;18.904;2023-05-14T11:32:07;14.82;;;12.15;;
57067;SDS011;43391;47.448;18.904;2023-05-14T11:34:32;17.50;;;12.88;;
57067;SDS011;43391;47.448;18.904;2023-05-14T11:37:08;20.08;;;13.43;;
57067;SDS011;43391;47.448;18.904;2023-05-14T11:39:34;18.00;;;12.63;;
57067;SDS011;43391;47.448;18.904;2023-05-14T11:42:04;17.00;;;13.75;;
57067;SDS011;43391;47.448;18.904;2023-05-14T11:44:36;16.50;;;14.55;;
57067;SDS011;43391;47.448;18.904;2023-05-14T11:47:02;20.50;;;14.93;;
57067;SDS011;43391;47.448;18.904;2023-05-14T11:49:29;19.38;;;15.10;;
57067;SDS011;43391;47.448;18.904;2023-05-14T11:51:58;18.40;;;14.95;;
57067;SDS011;43391;47.448;18.904;2023-05-14T11:54:26;23.17;;;16.55;;
57067;SDS011;43391;47.448;18.904;2023-05-14T11:56:53;20.73;;;15.50;;
57067;SDS011;43391;47.448;18.904;2023-05-14T11:59:19;24.38;;;16.10;;
57067;SDS011;43391;47.448;18.904;2023-05-14T12:01:45;19.55;;;16.38;;
57067;SDS011;43391;47.448;18.904;2023-05-14T12:04:11;25.50;;;17.60;;
57067;SDS011;43391;47.448;18.904;2023-05-14T12:06:38;22.80;;;17.48;;
57067;SDS011;43391;47.448;18.904;2023-05-14T12:09:04;21.60;;;17.50;;
57067;SDS011;43391;47.448;18.904;2023-05-14T12:11:30;28.90;;;17.55;;
57067;SDS011;43391;47.448;18.904;2023-05-14T12:13:57;19.98;;;16.83;;
57067;SDS011;43391;47.448;18.904;2023-05-14T12:16:28;18.75;;;16.75;;
57067;SDS011;43391;47.448;18.904;2023-05-14T12:18:58;21.75;;;18.08;;
57067;SDS011;43391;47.448;18.904;2023-05-14T12:23:55;18.67;;;16.23;;
57067;SDS011;43391;47.448;18.904;2023-05-14T12:26:24;20.55;;;16.38;;
57067;SDS011;43391;47.448;18.904;2023-05-14T12:28:55;19.63;;;14.77;;
57067;SDS011;43391;47.448;18.904;2023-05-14T12:31:27;16.75;;;14.70;;
57067;SDS011;43391;47.448;18.904;2023-05-14T12:33:53;20.17;;;14.20;;
57067;SDS011;43391;47.448;18.904;2023-05-14T12:36:18;19.02;;;14.07;;
57067;SDS011;43391;47.448;18.904;2023-05-14T12:38:44;25.27;;;14.20;;
57067;SDS011;43391;47.448;18.904;2023-05-14T12:41:09;20.33;;;15.25;;
57067;SDS011;43391;47.448;18.904;2023-05-14T12:43:35;23.02;;;14.85;;
57067;SDS011;43391;47.448;18.904;2023-05-14T12:46:00;24.27;;;16.77;;
57067;SDS011;43391;47.448;18.904;2023-05-14T12:48:25;20.02;;;16.20;;
57067;SDS011;43391;47.448;18.904;2023-05-14T12:50:51;18.88;;;16.05;;
57067;SDS011;43391;47.448;18.904;2023-05-14T12:53:16;21.08;;;16.52;;
57067;SDS011;43391;47.448;18.904;2023-05-14T12:55:41;20.13;;;16.45;;
57067;SDS011;43391;47.448;18.904;2023-05-14T12:58:07;20.27;;;16.27;;
57067;SDS011;43391;47.448;18.904;2023-05-14T13:00:32;21.35;;;16.10;;
57067;SDS011;43391;47.448;18.904;2023-05-14T13:02:57;22.95;;;16.95;;
57067;SDS011;43391;47.448;18.904;2023-05-14T13:05:23;20.80;;;16.17;;
57067;SDS011;43391;47.448;18.904;2023-05-14T13:07:48;21.25;;;17.30;;
57067;SDS011;43391;47.448;18.904;2023-05-14T13:10:15;23.02;;;18.45;;
57067;SDS011;43391;47.448;18.904;2023-05-14T13:12:42;18.95;;;16.90;;
57067;SDS011;43391;47.448;18.904;2023-05-14T13:15:08;22.23;;;18.10;;
57067;SDS011;43391;47.448;18.904;2023-05-14T13:17:34;24.10;;;19.13;;
57067;SDS011;43391;47.448;18.904;2023-05-14T13:20:00;21.77;;;17.38;;
57067;SDS011;43391;47.448;18.904;2023-05-14T13:22:25;25.33;;;18.35;;
57067;SDS011;43391;47.448;18.904;2023-05-14T13:24:50;23.65;;;18.48;;
57067;SDS011;43391;47.448;18.904;2023-05-14T13:27:16;24.95;;;19.23;;
57067;SDS011;43391;47.448;18.904;2023-05-14T13:29:41;26.85;;;20.42;;
57067;SDS011;43391;47.448;18.904;2023-05-14T13:32:06;24.92;;;19.02;;
57067;SDS011;43391;47.448;18.904;2023-05-14T13:34:32;23.23;;;19.05;;
57067;SDS011;43391;47.448;18.904;2023-05-14T13:36:57;22.80;;;19.70;;
57067;SDS011;43391;47.448;18.904;2023-05-14T13:39:23;22.98;;;17.85;;
57067;SDS011;43391;47.448;18.904;2023-05-14T13:41:51;27.67;;;19.65;;
57067;SDS011;43391;47.448;18.904;2023-05-14T13:44:17;24.15;;;18.58;;
57067;SDS011;43391;47.448;18.904;2023-05-14T13:46:42;22.88;;;18.35;;
57067;SDS011;43391;47.448;18.904;2023-05-14T13:49:07;26.00;;;19.25;;
57067;SDS011;43391;47.448;18.904;2023-05-14T13:51:33;21.73;;;18.17;;
57067;SDS011;43391;47.448;18.904;2023-05-14T13:53:58;22.73;;;17.85;;
57067;SDS011;43391;47.448;18.904;2023-05-14T13:56:24;21.38;;;17.30;;
57067;SDS011;43391;47.448;18.904;2023-05-14T13:58:50;26.63;;;18.73;;
57067;SDS011;43391;47.448;18.904;2023-05-14T14:01:15;22.80;;;18.92;;
57067;SDS011;43391;47.448;18.904;2023-05-14T14:03:40;22.65;;;17.42;;
57067;SDS011;43391;47.448;18.904;2023-05-14T14:06:06;23.85;;;17.10;;
57067;SDS011;43391;47.448;18.904;2023-05-14T14:08:31;22.67;;;18.05;;
57067;SDS011;43391;47.448;18.904;2023-05-14T14:10:57;23.02;;;18.58;;
57067;SDS011;43391;47.448;18.904;2023-05-14T14:13:22;20.88;;;17.52;;
57067;SDS011;43391;47.448;18.904;2023-05-14T14:15:48;22.85;;;17.92;;
57067;SDS011;43391;47.448;18.904;2023-05-14T14:18:14;22.50;;;18.60;;
57067;SDS011;43391;47.448;18.904;2023-05-14T14:20:39;25.77;;;19.70;;